createdAt,value
2022-08-20T00:02:28.509Z,74.55
2022-08-20T00:05:01.668Z,74.50
2022-08-20T00:07:34.487Z,74.67
2022-08-20T00:10:08.834Z,74.78
2022-08-20T00:12:47.217Z,74.75
2022-08-20T00:15:22.471Z,75.49
2022-08-20T00:17:55.803Z,75.18
2022-08-20T00:20:31.290Z,75.21
2022-08-20T00:23:09.812Z,75.34
2022-08-20T00:25:46.464Z,75.45
2022-08-20T00:28:20.292Z,75.40
2022-08-20T00:30:55.590Z,75.41
2022-08-20T00:33:29.357Z,75.39
2022-08-20T00:36:08.287Z,75.35
2022-08-20T00:38:44.265Z,75.62
2022-08-20T00:41:24.530Z,75.98
2022-08-20T00:44:17.293Z,76.60
2022-08-20T00:46:51.074Z,76.24
2022-08-20T00:49:34.932Z,76.15
2022-08-20T00:52:19.907Z,76.30
2022-08-20T00:55:02.648Z,76.25
2022-08-20T00:57:59.064Z,76.13
2022-08-20T01:00:46.864Z,76.07
2022-08-20T01:03:21.835Z,76.27
2022-08-20T01:05:55.638Z,76.24
2022-08-20T01:08:29.518Z,76.29
2022-08-20T01:11:23.137Z,76.34
2022-08-20T01:13:58.176Z,76.46
2022-08-20T01:16:34.724Z,76.52
2022-08-20T01:19:30.006Z,76.92
2022-08-20T01:22:28.310Z,77.58
2022-08-20T01:25:10.111Z,78.66
2022-08-20T01:27:44.036Z,77.93
2022-08-20T01:30:19.558Z,77.82
2022-08-20T01:32:53.057Z,77.60
2022-08-20T01:35:27.593Z,77.50
2022-08-20T01:38:00.633Z,77.46
2022-08-20T01:40:45.528Z,77.33
2022-08-20T01:43:19.640Z,77.36
2022-08-20T01:45:56.254Z,77.33
2022-08-20T01:48:30.425Z,77.24
2022-08-20T01:51:10.796Z,77.37
2022-08-20T01:53:55.480Z,77.30
2022-08-20T01:56:34.578Z,77.46
2022-08-20T01:59:08.678Z,77.31
2022-08-20T02:01:46.512Z,77.51
2022-08-20T02:04:22.533Z,77.55
2022-08-20T02:07:02.596Z,77.55
2022-08-20T02:09:39.694Z,77.63
2022-08-20T02:12:14.800Z,77.65
2022-08-20T02:14:51.819Z,77.97
2022-08-20T02:17:26.728Z,79.14
2022-08-20T02:20:11.139Z,78.19
2022-08-20T02:22:59.558Z,78.17
2022-08-20T02:25:36.365Z,78.15
2022-08-20T02:28:14.462Z,78.20
2022-08-20T02:30:51.928Z,78.17
2022-08-20T02:33:26.121Z,78.20
2022-08-20T02:36:02.434Z,78.12
2022-08-20T02:38:39.520Z,78.20
2022-08-20T02:41:13.827Z,78.43
2022-08-20T02:43:47.034Z,78.31
2022-08-20T02:46:20.624Z,78.29
2022-08-20T02:48:54.119Z,78.27
2022-08-20T02:51:30.437Z,78.55
2022-08-20T02:54:04.461Z,78.48
2022-08-20T02:56:37.841Z,78.52
2022-08-20T02:59:11.317Z,78.65
2022-08-20T03:01:59.206Z,78.54
2022-08-20T03:04:35.843Z,78.40
2022-08-20T03:07:10.657Z,78.61
2022-08-20T03:09:44.513Z,78.57
2022-08-20T03:12:17.623Z,78.91
2022-08-20T03:14:50.787Z,78.90
2022-08-20T03:17:26.082Z,78.83
2022-08-20T03:19:59.393Z,79.66
2022-08-20T03:22:32.892Z,80.71
2022-08-20T03:25:08.117Z,80.23
2022-08-20T03:27:41.934Z,81.23
2022-08-20T03:30:16.746Z,81.66
2022-08-20T03:32:50.497Z,80.80
2022-08-20T03:35:25.711Z,80.33
2022-08-20T03:37:59.660Z,80.00
2022-08-20T03:40:35.019Z,79.99
2022-08-20T03:43:12.606Z,79.96
2022-08-20T03:45:48.073Z,80.03
2022-08-20T03:48:22.862Z,79.79
2022-08-20T03:50:56.276Z,79.74
2022-08-20T03:53:32.023Z,79.81
2022-08-20T03:56:08.628Z,79.68
2022-08-20T03:58:42.267Z,79.54
2022-08-20T04:01:44.335Z,79.51
2022-08-20T04:04:12.422Z,79.21
2022-08-20T04:06:48.108Z,79.22
2022-08-20T04:09:21.521Z,79.13
2022-08-20T04:11:59.293Z,79.12
2022-08-20T04:14:32.937Z,78.99
2022-08-20T04:17:12.242Z,78.94
2022-08-20T04:19:46.650Z,78.83
2022-08-20T04:22:20.394Z,78.81
2022-08-20T04:24:54.513Z,78.82
2022-08-20T04:27:27.951Z,78.62
2022-08-20T04:30:04.532Z,78.56
2022-08-20T04:32:37.755Z,78.57
2022-08-20T04:35:12.624Z,78.61
2022-08-20T04:37:47.060Z,78.37
2022-08-20T04:40:40.331Z,78.22
2022-08-20T04:43:13.914Z,78.21
2022-08-20T04:45:48.801Z,78.28
2022-08-20T04:48:25.569Z,78.00
2022-08-20T04:50:59.478Z,78.11
2022-08-20T04:53:34.358Z,77.86
2022-08-20T04:56:07.874Z,77.90
2022-08-20T04:58:42.712Z,77.45
2022-08-20T05:01:16.234Z,77.48
2022-08-20T05:03:50.050Z,77.53
2022-08-20T05:06:25.431Z,77.48
2022-08-20T05:08:59.814Z,77.61
2022-08-20T05:11:36.779Z,77.43
2022-08-20T05:14:11.643Z,77.48
2022-08-20T05:16:44.858Z,77.28
2022-08-20T05:19:18.121Z,76.86
2022-08-20T05:21:54.161Z,76.53
2022-08-20T05:24:27.690Z,75.96
2022-08-20T05:27:02.831Z,75.86
2022-08-20T05:29:35.991Z,75.77
2022-08-20T05:32:12.836Z,75.52
2022-08-20T05:34:46.535Z,75.38
2022-08-20T05:37:19.930Z,74.87
2022-08-20T05:39:53.664Z,74.52
2022-08-20T05:42:30.005Z,74.51
2022-08-20T05:45:03.627Z,74.76
2022-08-20T05:47:46.544Z,74.65
2022-08-20T05:50:23.679Z,74.28
2022-08-20T05:52:57.434Z,74.27
2022-08-20T05:55:31.231Z,74.18
2022-08-20T05:58:07.227Z,73.95
2022-08-20T06:00:40.460Z,74.07
2022-08-20T06:03:32.418Z,73.89
2022-08-20T06:06:17.918Z,73.62
2022-08-20T06:09:04.071Z,73.53
2022-08-20T06:11:37.784Z,73.46
2022-08-20T06:14:11.367Z,73.12
2022-08-20T06:16:57.459Z,72.75
2022-08-20T06:19:34.759Z,72.60
2022-08-20T06:22:19.485Z,72.36
2022-08-20T06:24:59.674Z,72.01
2022-08-20T06:27:35.042Z,71.72
2022-08-20T06:30:09.670Z,71.60
2022-08-20T06:32:43.177Z,71.36
2022-08-20T06:35:19.884Z,71.11
2022-08-20T06:37:54.938Z,70.97
2022-08-20T06:40:30.645Z,70.80
2022-08-20T06:43:04.201Z,70.60
2022-08-20T06:45:39.532Z,70.51
2022-08-20T06:48:17.640Z,70.52
2022-08-20T06:50:51.318Z,70.47
2022-08-20T06:53:25.749Z,70.33
2022-08-20T06:56:00.092Z,69.89
2022-08-20T06:58:37.001Z,69.73
2022-08-20T07:01:15.507Z,69.63
2022-08-20T07:03:54.791Z,69.45
2022-08-20T07:06:30.226Z,69.47
2022-08-20T07:09:03.478Z,69.05
2022-08-20T07:11:36.551Z,69.05
2022-08-20T07:14:09.766Z,68.68
2022-08-20T07:16:42.762Z,68.63
2022-08-20T07:19:16.744Z,68.64
2022-08-20T07:21:51.071Z,68.51
2022-08-20T07:24:24.473Z,68.04
2022-08-20T07:27:07.601Z,68.14
2022-08-20T07:29:59.894Z,67.97
2022-08-20T07:32:39.566Z,67.67
2022-08-20T07:35:15.268Z,67.24
2022-08-20T07:37:50.640Z,67.23
2022-08-20T07:40:29.790Z,67.41
2022-08-20T07:43:04.143Z,67.25
2022-08-20T07:45:39.415Z,67.17
2022-08-20T07:48:14.904Z,66.87
2022-08-20T07:51:08.652Z,66.49
2022-08-20T07:53:42.733Z,66.15
2022-08-20T07:56:22.032Z,65.64
2022-08-20T07:58:59.579Z,65.53
2022-08-20T08:01:34.038Z,65.25
2022-08-20T08:04:07.219Z,65.12
2022-08-20T08:06:41.046Z,64.72
2022-08-20T08:09:17.795Z,64.42
2022-08-20T08:11:52.998Z,63.80
2022-08-20T08:14:32.354Z,63.93
2022-08-20T08:17:07.685Z,63.85
2022-08-20T08:19:51.636Z,63.47
2022-08-20T08:22:25.633Z,63.31
2022-08-20T08:25:02.965Z,62.76
2022-08-20T08:27:36.574Z,62.44
2022-08-20T08:30:10.609Z,61.87
2022-08-20T08:33:04.628Z,62.06
2022-08-20T08:35:41.450Z,62.16
2022-08-20T08:38:17.520Z,61.64
2022-08-20T08:40:52.019Z,61.53
2022-08-20T08:43:35.046Z,60.97
2022-08-20T08:46:11.841Z,58.47
2022-08-20T08:48:48.651Z,58.74
2022-08-20T08:51:35.635Z,59.85
2022-08-20T08:54:09.431Z,56.76
2022-08-20T08:56:43.799Z,57.81
2022-08-20T08:59:25.726Z,58.51
2022-08-20T09:02:26.484Z,58.09
2022-08-20T09:05:02.922Z,53.83
2022-08-20T09:07:37.821Z,53.53
2022-08-20T09:10:11.772Z,54.07
2022-08-20T09:12:47.870Z,52.54
2022-08-20T09:15:21.892Z,51.34
2022-08-20T09:17:55.639Z,51.28
2022-08-20T09:20:31.466Z,53.51
2022-08-20T09:23:07.567Z,53.14
2022-08-20T09:25:41.223Z,50.96
2022-08-20T09:28:14.524Z,49.65
2022-08-20T09:30:48.171Z,50.24
2022-08-20T09:33:22.235Z,50.68
2022-08-20T09:35:55.694Z,50.45
2022-08-20T09:38:28.950Z,51.57
2022-08-20T09:41:02.562Z,48.72
2022-08-20T09:43:35.577Z,47.86
2022-08-20T09:46:08.979Z,47.37
2022-08-20T09:48:42.398Z,48.10
2022-08-20T09:51:15.630Z,48.98
2022-08-20T09:53:49.558Z,49.52
2022-08-20T09:56:23.120Z,49.12
2022-08-20T09:59:01.073Z,47.47
2022-08-20T10:01:36.084Z,46.18
2022-08-20T10:04:09.226Z,47.12
2022-08-20T10:06:46.155Z,47.59
2022-08-20T10:09:20.142Z,48.04
2022-08-20T10:11:53.159Z,48.71
2022-08-20T10:14:26.578Z,48.58
2022-08-20T10:17:04.037Z,45.90
2022-08-20T10:19:36.699Z,46.62
2022-08-20T10:22:10.338Z,47.41
2022-08-20T10:24:43.390Z,46.81
2022-08-20T10:27:16.238Z,45.06
2022-08-20T10:29:49.602Z,43.59
2022-08-20T10:32:23.882Z,45.20
2022-08-20T10:34:56.809Z,45.55
2022-08-20T10:37:30.924Z,44.78
2022-08-20T10:40:04.795Z,44.83
2022-08-20T10:42:42.406Z,45.45
2022-08-20T10:45:17.842Z,44.37
2022-08-20T10:47:52.327Z,44.59
2022-08-20T10:50:26.111Z,43.96
2022-08-20T10:53:03.997Z,44.09
2022-08-20T10:55:37.286Z,44.21
2022-08-20T10:58:11.457Z,43.91
2022-08-20T11:00:46.040Z,43.98
2022-08-20T11:03:19.480Z,44.22
2022-08-20T11:05:52.256Z,44.58
2022-08-20T11:08:34.460Z,45.01
2022-08-20T11:11:11.680Z,43.84
2022-08-20T11:13:44.451Z,42.37
2022-08-20T11:16:17.555Z,43.38
2022-08-20T11:18:50.656Z,43.37
2022-08-20T11:21:23.372Z,42.54
2022-08-20T11:24:01.016Z,43.30
2022-08-20T11:26:37.000Z,43.41
2022-08-20T11:29:09.575Z,44.30
2022-08-20T11:31:42.404Z,44.41
2022-08-20T11:34:15.380Z,43.63
2022-08-20T11:36:49.842Z,44.00
2022-08-20T11:39:23.232Z,44.29
2022-08-20T11:41:56.440Z,45.15
2022-08-20T11:44:29.499Z,44.72
2022-08-20T11:47:06.275Z,44.64
2022-08-20T11:49:40.218Z,45.21
2022-08-20T11:52:13.377Z,45.63
2022-08-20T11:54:46.271Z,45.74
2022-08-20T11:57:28.602Z,45.34
2022-08-20T12:00:04.018Z,44.53
2022-08-20T12:02:41.802Z,45.01
2022-08-20T12:05:15.530Z,44.13
2022-08-20T12:07:48.686Z,43.51
2022-08-20T12:10:23.672Z,43.26
2022-08-20T12:12:58.611Z,43.31
2022-08-20T12:15:32.027Z,42.35
2022-08-20T12:18:08.326Z,43.28
2022-08-20T12:20:41.432Z,40.25
2022-08-20T12:23:14.644Z,40.13
2022-08-20T12:25:48.237Z,41.62
2022-08-20T12:28:25.763Z,41.11
2022-08-20T12:31:01.254Z,41.54
2022-08-20T12:33:34.744Z,42.10
2022-08-20T12:36:08.611Z,42.16
2022-08-20T12:38:42.253Z,41.34
2022-08-20T12:41:15.368Z,39.64
2022-08-20T12:43:49.345Z,39.65
2022-08-20T12:46:22.672Z,38.86
2022-08-20T12:48:56.441Z,38.66
2022-08-20T12:51:30.395Z,39.48
2022-08-20T12:54:03.889Z,38.31
2022-08-20T12:56:37.087Z,39.22
2022-08-20T12:59:10.522Z,39.69
2022-08-20T13:01:43.902Z,39.20
2022-08-20T13:04:21.468Z,38.38
2022-08-20T13:06:54.878Z,39.69
2022-08-20T13:09:28.644Z,37.98
2022-08-20T13:12:01.527Z,38.34
2022-08-20T13:14:39.089Z,38.24
2022-08-20T13:17:12.751Z,37.70
2022-08-20T13:19:46.260Z,38.65
2022-08-20T13:22:19.227Z,39.11
2022-08-20T13:24:53.078Z,38.42
2022-08-20T13:27:26.209Z,39.04
2022-08-20T13:29:59.653Z,39.64
2022-08-20T13:32:32.850Z,39.35
2022-08-20T13:35:06.668Z,38.86
2022-08-20T13:37:40.780Z,39.65
2022-08-20T13:40:14.563Z,39.37
2022-08-20T13:42:47.417Z,40.25
2022-08-20T13:45:20.352Z,40.85
2022-08-20T13:47:57.137Z,40.14
2022-08-20T13:50:30.098Z,39.10
2022-08-20T13:53:04.253Z,40.29
2022-08-20T13:55:40.870Z,40.56
2022-08-20T13:58:13.748Z,40.07
2022-08-20T14:00:47.676Z,40.29
2022-08-20T14:03:25.839Z,40.17
2022-08-20T14:06:04.722Z,40.20
2022-08-20T14:08:38.136Z,40.76
2022-08-20T14:11:14.004Z,40.57
2022-08-20T14:13:52.262Z,40.40
2022-08-20T14:16:27.662Z,41.05
2022-08-20T14:19:01.871Z,41.18
2022-08-20T14:21:34.834Z,40.99
2022-08-20T14:24:07.976Z,40.91
2022-08-20T14:26:41.413Z,41.17
2022-08-20T14:29:14.348Z,40.64
2022-08-20T14:31:47.104Z,40.39
2022-08-20T14:34:20.497Z,40.61
2022-08-20T14:36:54.161Z,41.04
2022-08-20T14:39:28.242Z,40.70
2022-08-20T14:42:01.451Z,40.63
2022-08-20T14:44:35.523Z,40.06
2022-08-20T14:47:28.303Z,40.35
2022-08-20T14:50:06.104Z,40.33
2022-08-20T14:52:39.205Z,40.12
2022-08-20T14:55:15.321Z,40.04
2022-08-20T14:57:49.327Z,39.70
2022-08-20T15:00:26.331Z,39.14
2022-08-20T15:02:59.971Z,39.32
2022-08-20T15:05:34.165Z,39.40
2022-08-20T15:08:14.142Z,39.19
2022-08-20T15:10:47.190Z,39.54
2022-08-20T15:13:20.734Z,39.97
2022-08-20T15:15:54.199Z,40.36
2022-08-20T15:18:29.201Z,40.31
2022-08-20T15:21:02.452Z,40.69
2022-08-20T15:23:35.525Z,40.89
2022-08-20T15:26:09.384Z,40.99
2022-08-20T15:28:42.368Z,41.08
2022-08-20T15:31:16.663Z,41.44
2022-08-20T15:33:49.666Z,41.40
2022-08-20T15:36:23.880Z,41.61
2022-08-20T15:38:57.662Z,41.81
2022-08-20T15:41:30.893Z,42.08
2022-08-20T15:44:09.345Z,42.27
2022-08-20T15:46:42.777Z,42.53
2022-08-20T15:49:15.944Z,42.70
2022-08-20T15:51:53.064Z,43.03
2022-08-20T15:54:28.735Z,43.40
2022-08-20T15:57:35.010Z,43.64
2022-08-20T16:00:25.943Z,43.98
2022-08-20T16:03:23.273Z,44.16
2022-08-20T16:06:13.670Z,44.48
2022-08-20T16:08:46.764Z,44.93
2022-08-20T16:11:54.892Z,44.84
2022-08-20T16:14:31.836Z,45.03
2022-08-20T16:17:08.767Z,44.95
2022-08-20T16:20:13.452Z,45.22
2022-08-20T16:22:48.181Z,45.66
2022-08-20T16:25:23.847Z,45.83
2022-08-20T16:28:19.344Z,45.91
2022-08-20T16:31:05.065Z,45.93
2022-08-20T16:34:03.834Z,45.92
2022-08-20T16:37:07.738Z,46.36
2022-08-20T16:40:01.925Z,46.40
2022-08-20T16:42:42.717Z,46.65
2022-08-20T16:45:26.069Z,47.35
2022-08-20T16:48:07.642Z,47.47
2022-08-20T16:50:47.916Z,47.72
2022-08-20T16:53:24.398Z,48.35
2022-08-20T16:55:58.139Z,48.35
2022-08-20T16:58:31.422Z,48.45
2022-08-20T17:01:16.650Z,49.09
2022-08-20T17:03:53.507Z,49.55
2022-08-20T17:06:46.433Z,49.98
2022-08-20T17:09:45.917Z,50.10
2022-08-20T17:12:25.406Z,50.22
2022-08-20T17:15:00.950Z,50.93
2022-08-20T17:17:38.235Z,51.98
2022-08-20T17:20:20.845Z,52.43
2022-08-20T17:23:09.331Z,52.11
2022-08-20T17:25:42.428Z,52.24
2022-08-20T17:28:21.310Z,52.65
2022-08-20T17:30:55.196Z,52.84
2022-08-20T17:33:27.600Z,53.31
2022-08-20T17:36:11.619Z,53.13
2022-08-20T17:38:49.937Z,53.55
2022-08-20T17:41:30.085Z,53.29
2022-08-20T17:44:23.265Z,53.41
2022-08-20T17:46:58.500Z,53.39
2022-08-20T17:49:40.299Z,53.45
2022-08-20T17:52:41.999Z,53.71
2022-08-20T17:55:15.029Z,53.65
2022-08-20T17:57:50.758Z,53.55
2022-08-20T18:00:26.817Z,53.48
2022-08-20T18:03:07.457Z,53.50
2022-08-20T18:05:41.590Z,53.76
2022-08-20T18:08:18.670Z,53.66
2022-08-20T18:11:24.277Z,54.24
2022-08-20T18:14:32.161Z,54.28
2022-08-20T18:17:16.528Z,54.26
2022-08-20T18:20:00.341Z,53.99
2022-08-20T18:22:46.699Z,53.91
2022-08-20T18:25:35.085Z,54.10
2022-08-20T18:28:21.345Z,54.36
2022-08-20T18:31:08.026Z,54.27
2022-08-20T18:33:44.257Z,54.57
2022-08-20T18:36:22.865Z,54.86
2022-08-20T18:39:13.306Z,54.75
2022-08-20T18:42:10.180Z,54.70
2022-08-20T18:44:51.772Z,54.75
2022-08-20T18:47:36.586Z,55.15
2022-08-20T18:50:34.660Z,55.41
2022-08-20T18:53:20.838Z,55.53
2022-08-20T18:56:15.856Z,56.01
2022-08-20T18:59:02.990Z,56.28
2022-08-20T19:01:40.044Z,56.08
2022-08-20T19:04:33.540Z,55.80
2022-08-20T19:07:08.524Z,56.10
2022-08-20T19:10:34.876Z,56.10
2022-08-20T19:13:07.159Z,56.28
2022-08-20T19:15:51.646Z,56.57
2022-08-20T19:18:29.478Z,56.60
2022-08-20T19:21:05.134Z,56.70
2022-08-20T19:23:56.054Z,56.95
2022-08-20T19:26:32.570Z,57.20
2022-08-20T19:29:15.065Z,57.29
2022-08-20T19:31:49.406Z,57.38
2022-08-20T19:34:26.776Z,57.44
2022-08-20T19:37:35.203Z,57.45
2022-08-20T19:40:22.277Z,57.56
2022-08-20T19:42:59.758Z,57.76
2022-08-20T19:45:46.210Z,57.93
2022-08-20T19:48:38.548Z,58.24
2022-08-20T19:51:32.523Z,58.23
2022-08-20T19:54:07.369Z,58.21
2022-08-20T19:56:44.389Z,58.41
2022-08-20T19:59:26.468Z,58.44
2022-08-20T20:02:03.825Z,58.67
2022-08-20T20:04:57.847Z,58.77
2022-08-20T20:07:55.489Z,58.91
2022-08-20T20:10:38.521Z,59.13
2022-08-20T20:13:14.799Z,59.30
2022-08-20T20:15:47.670Z,59.51
2022-08-20T20:18:21.341Z,59.65
2022-08-20T20:20:58.295Z,59.86
2022-08-20T20:23:38.608Z,59.42
2022-08-20T20:26:24.050Z,59.56
2022-08-20T20:29:08.740Z,59.42
2022-08-20T20:31:59.455Z,59.37
2022-08-20T20:34:55.399Z,59.14
2022-08-20T20:37:48.954Z,58.65
2022-08-20T20:40:48.390Z,58.44
2022-08-20T20:43:35.763Z,58.32
2022-08-20T20:46:21.174Z,58.43
2022-08-20T20:49:20.948Z,58.55
2022-08-20T20:52:15.270Z,58.58
2022-08-20T20:54:51.116Z,59.01
2022-08-20T20:57:38.248Z,59.19
2022-08-20T21:00:26.681Z,59.17
2022-08-20T21:03:02.570Z,59.28
2022-08-20T21:05:41.048Z,59.46
2022-08-20T21:08:14.744Z,59.63
2022-08-20T21:10:49.451Z,59.79
2022-08-20T21:13:22.522Z,60.16
2022-08-20T21:15:55.524Z,60.64
2022-08-20T21:18:36.243Z,60.78
2022-08-20T21:21:11.245Z,60.84
2022-08-20T21:23:44.540Z,61.05
2022-08-20T21:26:17.673Z,61.44
2022-08-20T21:28:51.242Z,61.64
2022-08-20T21:31:25.898Z,61.95
2022-08-20T21:33:59.550Z,62.03
2022-08-20T21:36:32.894Z,62.37
2022-08-20T21:39:06.690Z,62.40
2022-08-20T21:41:42.610Z,62.37
2022-08-20T21:44:29.707Z,62.79
2022-08-20T21:47:04.049Z,62.88
2022-08-20T21:49:37.435Z,63.04
2022-08-20T21:52:11.675Z,63.01
2022-08-20T21:54:44.778Z,63.17
2022-08-20T21:57:26.136Z,63.14
2022-08-20T22:00:01.746Z,63.35
2022-08-20T22:02:38.283Z,63.51
2022-08-20T22:05:12.080Z,63.36
2022-08-20T22:07:46.037Z,63.40
2022-08-20T22:10:19.596Z,63.21
2022-08-20T22:12:53.410Z,63.36
2022-08-20T22:15:26.910Z,63.11
2022-08-20T22:17:59.727Z,63.23
2022-08-20T22:20:33.481Z,63.30
2022-08-20T22:23:09.759Z,63.23
2022-08-20T22:25:43.217Z,63.46
2022-08-20T22:28:16.147Z,63.43
2022-08-20T22:30:49.705Z,63.86
2022-08-20T22:33:25.425Z,63.91
2022-08-20T22:35:59.988Z,63.76
2022-08-20T22:38:32.788Z,63.82
2022-08-20T22:41:09.587Z,63.64
2022-08-20T22:43:55.658Z,63.79
2022-08-20T22:46:36.008Z,63.99
2022-08-20T22:49:12.773Z,64.15
2022-08-20T22:51:47.048Z,64.39
2022-08-20T22:54:23.594Z,64.52
2022-08-20T22:56:57.105Z,64.95
2022-08-20T22:59:29.767Z,65.25
2022-08-20T23:02:08.523Z,65.03
2022-08-20T23:04:41.817Z,65.25
2022-08-20T23:07:17.051Z,65.49
2022-08-20T23:09:50.221Z,65.67
2022-08-20T23:12:22.867Z,65.59
2022-08-20T23:14:56.120Z,65.57
2022-08-20T23:17:29.350Z,65.59
2022-08-20T23:20:02.894Z,65.52
2022-08-20T23:22:36.241Z,65.78
2022-08-20T23:25:11.951Z,65.85
2022-08-20T23:27:49.480Z,65.89
2022-08-20T23:30:23.971Z,66.05
2022-08-20T23:32:57.395Z,66.96
2022-08-20T23:35:39.948Z,66.77
2022-08-20T23:38:13.521Z,66.68
2022-08-20T23:40:46.636Z,66.56
2022-08-20T23:43:19.875Z,66.71
2022-08-20T23:45:53.543Z,66.85
2022-08-20T23:48:26.945Z,67.10
2022-08-20T23:51:00.537Z,67.01
2022-08-20T23:53:33.964Z,67.00
2022-08-20T23:56:07.782Z,66.96
2022-08-20T23:58:41.635Z,67.07
